Time;durP1;ratioP1;P1;durP2;ratioP2;P2;SDS_P1;SDS_P2;PMS_P1;PMS_P2;Temp;Humidity;BMP_temperature;BMP_pressure;BME280_temperature;BME280_humidity;BME280_pressure;Samples;Min_cycle;Max_cycle;Signal;HPM_P1;HPM_P2
2021/07/31 00:00:02;;;;;;;4.78;3.03;;;;;;;;;;5131699;28;20016;-74
2021/07/31 00:02:27;;;;;;;7.65;2.80;;;;;;;;;;5131646;28;20023;-73
2021/07/31 00:04:53;;;;;;;6.40;2.85;;;;;;;;;;5131382;28;20517;-72
2021/07/31 00:07:18;;;;;;;6.82;3.00;;;;;;;;;;5131839;28;20023;-72
2021/07/31 00:09:44;;;;;;;4.68;2.67;;;;;;;;;;5132563;27;20027;-72
2021/07/31 00:12:09;;;;;;;7.05;2.95;;;;;;;;;;5135608;27;20067;-73
2021/07/31 00:14:35;;;;;;;5.25;2.60;;;;;;;;;;5135476;27;20019;-73
2021/07/31 00:17:02;;;;;;;6.10;2.60;;;;;;;;;;5135674;27;20457;-73
2021/07/31 00:19:27;;;;;;;6.57;2.78;;;;;;;;;;5135725;27;20030;-73
2021/07/31 00:21:53;;;;;;;5.75;2.83;;;;;;;;;;5135379;27;20015;-73
2021/07/31 00:24:18;;;;;;;6.22;3.13;;;;;;;;;;5135765;27;20019;-74
2021/07/31 00:26:44;;;;;;;8.25;2.70;;;;;;;;;;5135445;27;20408;-74
2021/07/31 00:29:09;;;;;;;5.72;2.20;;;;;;;;;;5135393;27;20432;-73
2021/07/31 00:31:34;;;;;;;4.03;2.20;;;;;;;;;;5135213;27;20030;-74
2021/07/31 00:34:00;;;;;;;6.45;3.95;;;;;;;;;;5135373;27;20026;-74
2021/07/31 00:36:25;;;;;;;5.75;2.53;;;;;;;;;;5135247;27;20026;-74
2021/07/31 00:38:51;;;;;;;7.05;2.67;;;;;;;;;;5135163;27;20019;-74
2021/07/31 00:41:17;;;;;;;3.72;2.47;;;;;;;;;;5135256;27;20493;-73
2021/07/31 00:43:42;;;;;;;7.03;3.25;;;;;;;;;;5134979;27;20389;-73
2021/07/31 00:46:08;;;;;;;5.72;2.70;;;;;;;;;;5134899;27;20035;-73
2021/07/31 00:48:34;;;;;;;6.55;3.10;;;;;;;;;;5135115;27;20114;-73
2021/07/31 00:51:00;;;;;;;6.30;2.45;;;;;;;;;;5135164;27;20159;-72
2021/07/31 00:53:25;;;;;;;6.68;2.95;;;;;;;;;;5135324;27;20321;-73
2021/07/31 00:55:54;;;;;;;4.70;2.45;;;;;;;;;;5134720;27;20490;-73
2021/07/31 00:58:21;;;;;;;4.25;2.50;;;;;;;;;;5135249;27;20019;-73
2021/07/31 01:00:46;;;;;;;6.10;3.10;;;;;;;;;;5134682;27;20027;-73
2021/07/31 01:03:11;;;;;;;5.18;2.83;;;;;;;;;;5134759;27;20497;-73
2021/07/31 01:05:37;;;;;;;5.50;2.67;;;;;;;;;;5134534;27;20027;-73
2021/07/31 01:08:02;;;;;;;5.72;2.83;;;;;;;;;;5134658;27;20051;-73
2021/07/31 01:10:28;;;;;;;9.43;3.08;;;;;;;;;;5134710;27;20034;-73
2021/07/31 01:12:55;;;;;;;5.72;2.85;;;;;;;;;;5134332;27;20120;-72
2021/07/31 01:15:21;;;;;;;6.28;2.85;;;;;;;;;;5134531;27;20366;-73
2021/07/31 01:17:46;;;;;;;6.45;3.10;;;;;;;;;;5134344;27;20106;-73
2021/07/31 01:20:12;;;;;;;9.85;2.83;;;;;;;;;;5134604;27;20023;-73
2021/07/31 01:22:37;;;;;;;5.55;3.25;;;;;;;;;;5133445;27;20022;-73
2021/07/31 01:25:04;;;;;;;5.80;2.63;;;;;;;;;;5134407;27;20019;-73
2021/07/31 01:27:29;;;;;;;5.78;2.78;;;;;;;;;;5132988;27;20031;-72
2021/07/31 01:29:54;;;;;;;7.18;2.72;;;;;;;;;;5134104;27;20548;-72
2021/07/31 01:32:20;;;;;;;4.72;2.70;;;;;;;;;;5134243;27;20083;-73
2021/07/31 01:34:45;;;;;;;6.63;2.85;;;;;;;;;;5133990;27;20419;-72
2021/07/31 01:37:11;;;;;;;8.27;2.92;;;;;;;;;;5134218;27;20015;-72
2021/07/31 01:39:36;;;;;;;6.35;2.90;;;;;;;;;;5134350;27;20080;-72
2021/07/31 01:42:04;;;;;;;9.27;2.95;;;;;;;;;;5134170;27;20023;-73
2021/07/31 01:44:30;;;;;;;7.95;3.08;;;;;;;;;;5134018;27;20055;-73
2021/07/31 01:46:55;;;;;;;5.68;3.30;;;;;;;;;;5133617;27;20066;-73
2021/07/31 01:49:20;;;;;;;8.95;3.53;;;;;;;;;;5133943;27;20527;-73
2021/07/31 01:51:46;;;;;;;7.13;3.17;;;;;;;;;;5133686;27;20027;-73
2021/07/31 01:54:11;;;;;;;7.60;3.10;;;;;;;;;;5134016;27;20019;-73
2021/07/31 01:56:37;;;;;;;6.05;3.00;;;;;;;;;;5133818;27;20504;-73
2021/07/31 01:59:02;;;;;;;6.28;3.28;;;;;;;;;;5134011;27;20020;-73
2021/07/31 02:01:28;;;;;;;5.10;2.83;;;;;;;;;;5133590;27;20023;-73
2021/07/31 02:03:53;;;;;;;8.70;3.40;;;;;;;;;;5133748;27;20029;-73
2021/07/31 02:06:19;;;;;;;6.88;3.03;;;;;;;;;;5133556;27;20034;-73
2021/07/31 02:08:44;;;;;;;5.18;3.20;;;;;;;;;;5133360;27;20019;-72
2021/07/31 02:11:11;;;;;;;7.55;3.50;;;;;;;;;;5133591;27;20110;-73
2021/07/31 02:13:36;;;;;;;7.05;3.40;;;;;;;;;;5133355;27;20027;-72
2021/07/31 02:16:02;;;;;;;5.47;2.92;;;;;;;;;;5133221;27;20042;-73
2021/07/31 02:18:27;;;;;;;12.52;3.25;;;;;;;;;;5131784;27;20098;-73
2021/07/31 02:20:52;;;;;;;6.75;3.00;;;;;;;;;;5117151;27;20022;-73
2021/07/31 02:23:18;;;;;;;6.03;3.30;;;;;;;;;;5112463;28;20079;-73
2021/07/31 02:25:43;;;;;;;6.82;3.30;;;;;;;;;;5112545;28;20072;-74
2021/07/31 02:28:09;;;;;;;6.78;3.13;;;;;;;;;;5112627;28;20255;-73
2021/07/31 02:30:35;;;;;;;8.38;3.30;;;;;;;;;;5112662;28;20059;-73
2021/07/31 02:33:00;;;;;;;6.28;3.40;;;;;;;;;;5112378;28;20047;-73
2021/07/31 02:35:33;;;;;;;6.22;2.97;;;;;;;;;;5112735;28;20027;-72
2021/07/31 02:37:58;;;;;;;7.50;3.10;;;;;;;;;;5112238;28;20458;-73
2021/07/31 02:40:24;;;;;;;6.07;3.03;;;;;;;;;;5112471;28;20028;-72
2021/07/31 02:42:49;;;;;;;6.68;2.97;;;;;;;;;;5112214;28;20016;-72
2021/07/31 02:45:14;;;;;;;9.23;3.85;;;;;;;;;;5112267;28;20030;-73
2021/07/31 02:47:40;;;;;;;6.95;3.60;;;;;;;;;;5111765;28;20040;-72
2021/07/31 02:50:06;;;;;;;8.00;3.60;;;;;;;;;;5112490;28;20367;-72
2021/07/31 02:52:31;;;;;;;7.35;3.70;;;;;;;;;;5112107;28;20146;-73
2021/07/31 02:54:56;;;;;;;8.00;3.40;;;;;;;;;;5111979;28;20459;-72
2021/07/31 02:57:22;;;;;;;7.13;3.20;;;;;;;;;;5112069;28;20023;-72
2021/07/31 02:59:47;;;;;;;7.25;3.45;;;;;;;;;;5111899;28;20425;-73
2021/07/31 03:02:13;;;;;;;7.05;3.63;;;;;;;;;;5112150;28;20499;-73
2021/07/31 03:04:38;;;;;;;8.85;3.72;;;;;;;;;;5111885;28;20055;-73
2021/07/31 03:07:03;;;;;;;6.38;3.33;;;;;;;;;;5111926;28;20026;-72
2021/07/31 03:09:29;;;;;;;7.25;3.58;;;;;;;;;;5111895;28;20489;-72
2021/07/31 03:11:54;;;;;;;7.25;3.40;;;;;;;;;;5112011;28;20027;-73
2021/07/31 03:14:20;;;;;;;6.15;3.55;;;;;;;;;;5132631;27;20065;-72
2021/07/31 03:16:45;;;;;;;8.45;3.33;;;;;;;;;;5113590;27;20030;-73
2021/07/31 03:19:11;;;;;;;5.47;3.00;;;;;;;;;;5132292;27;20046;-72
2021/07/31 03:21:36;;;;;;;7.50;3.55;;;;;;;;;;5132249;27;20035;-73
2021/07/31 03:24:02;;;;;;;6.60;3.50;;;;;;;;;;5131921;27;20023;-72
2021/07/31 03:26:27;;;;;;;6.05;3.50;;;;;;;;;;5132191;27;20102;-72
2021/07/31 03:28:52;;;;;;;8.60;3.42;;;;;;;;;;5131899;27;20455;-72
2021/07/31 03:31:19;;;;;;;6.65;3.22;;;;;;;;;;5131972;27;20646;-72
2021/07/31 03:33:44;;;;;;;9.23;4.22;;;;;;;;;;5131727;27;20122;-73
2021/07/31 03:36:10;;;;;;;7.10;3.58;;;;;;;;;;5131889;27;20122;-72
2021/07/31 03:38:35;;;;;;;7.32;2.97;;;;;;;;;;5132177;27;20110;-72
2021/07/31 03:41:01;;;;;;;8.80;3.83;;;;;;;;;;5131738;27;20487;-73
2021/07/31 03:43:26;;;;;;;7.97;3.83;;;;;;;;;;5131843;27;20027;-72
2021/07/31 03:45:51;;;;;;;8.38;3.83;;;;;;;;;;5131009;27;20060;-72
2021/07/31 03:48:17;;;;;;;5.68;3.22;;;;;;;;;;5131742;27;20114;-72
2021/07/31 03:50:42;;;;;;;6.63;3.65;;;;;;;;;;5131855;27;20024;-73
2021/07/31 03:53:08;;;;;;;6.65;3.30;;;;;;;;;;5131846;28;20351;-72
2021/07/31 03:55:33;;;;;;;7.95;3.35;;;;;;;;;;5131834;28;20023;-73
2021/07/31 03:57:58;;;;;;;8.77;4.00;;;;;;;;;;5131517;28;20015;-73
2021/07/31 04:00:24;;;;;;;7.18;3.65;;;;;;;;;;5131692;28;20034;-73
2021/07/31 04:02:49;;;;;;;5.88;3.22;;;;;;;;;;5131865;28;20019;-72
2021/07/31 04:05:15;;;;;;;8.00;3.50;;;;;;;;;;5131695;28;20100;-72
2021/07/31 04:07:40;;;;;;;5.97;3.47;;;;;;;;;;5131580;28;20024;-72
2021/07/31 04:10:06;;;;;;;9.05;3.50;;;;;;;;;;5131433;28;20043;-72
2021/07/31 04:12:32;;;;;;;7.07;3.72;;;;;;;;;;5131517;28;20431;-72
2021/07/31 04:14:58;;;;;;;7.22;3.60;;;;;;;;;;5131344;28;20031;-73
2021/07/31 04:17:23;;;;;;;6.78;3.22;;;;;;;;;;5131512;28;20051;-73
2021/07/31 04:19:50;;;;;;;8.10;3.95;;;;;;;;;;5131256;28;20381;-73
2021/07/31 04:22:15;;;;;;;7.93;4.38;;;;;;;;;;5131520;28;20110;-73
2021/07/31 04:24:41;;;;;;;7.47;3.88;;;;;;;;;;5131407;28;20573;-73
2021/07/31 04:27:06;;;;;;;9.85;3.63;;;;;;;;;;5131190;28;20466;-73
2021/07/31 04:29:32;;;;;;;7.80;3.38;;;;;;;;;;5131491;28;20378;-73
2021/07/31 04:31:57;;;;;;;6.78;3.45;;;;;;;;;;5131248;28;20015;-72
2021/07/31 04:34:23;;;;;;;8.85;3.38;;;;;;;;;;5131429;28;20026;-73
2021/07/31 04:36:49;;;;;;;4.95;3.28;;;;;;;;;;5131235;28;20015;-72
2021/07/31 04:39:14;;;;;;;6.55;3.25;;;;;;;;;;5131377;28;20106;-73
2021/07/31 04:41:40;;;;;;;6.65;3.63;;;;;;;;;;5131307;28;20106;-72
2021/07/31 04:44:06;;;;;;;5.40;3.22;;;;;;;;;;5131081;28;20031;-72
2021/07/31 04:46:31;;;;;;;8.23;3.78;;;;;;;;;;5131041;28;20039;-72
2021/07/31 04:48:57;;;;;;;6.00;3.17;;;;;;;;;;5131013;28;20118;-72
2021/07/31 04:51:22;;;;;;;7.05;3.67;;;;;;;;;;5131219;28;20490;-72
2021/07/31 04:53:47;;;;;;;5.60;3.10;;;;;;;;;;5130969;28;20043;-72
2021/07/31 04:56:13;;;;;;;5.60;3.28;;;;;;;;;;5131431;27;20019;-73
2021/07/31 04:58:38;;;;;;;6.68;3.50;;;;;;;;;;5134878;27;20025;-73
2021/07/31 05:01:04;;;;;;;8.90;3.80;;;;;;;;;;5134766;27;20383;-73
2021/07/31 05:03:30;;;;;;;6.10;3.40;;;;;;;;;;5134886;27;20031;-73
2021/07/31 05:05:56;;;;;;;6.10;3.50;;;;;;;;;;5134646;27;20686;-72
2021/07/31 05:08:21;;;;;;;6.75;3.45;;;;;;;;;;5134595;27;20027;-72
2021/07/31 05:10:49;;;;;;;9.70;3.42;;;;;;;;;;5134624;27;20102;-72
2021/07/31 05:13:15;;;;;;;9.10;3.47;;;;;;;;;;5134584;27;20043;-72
2021/07/31 05:15:42;;;;;;;7.78;3.70;;;;;;;;;;5134591;27;20030;-72
2021/07/31 05:18:09;;;;;;;10.05;3.03;;;;;;;;;;5134397;27;20015;-73
2021/07/31 05:20:38;;;;;;;6.68;3.28;;;;;;;;;;5134639;27;20066;-73
2021/07/31 05:23:04;;;;;;;5.93;3.22;;;;;;;;;;5134322;27;20049;-72
2021/07/31 05:25:29;;;;;;;7.10;3.58;;;;;;;;;;5134431;27;20023;-72
2021/07/31 05:27:55;;;;;;;6.65;2.97;;;;;;;;;;5115965;27;20036;-73
2021/07/31 05:30:21;;;;;;;7.10;3.65;;;;;;;;;;5134616;27;20079;-73
2021/07/31 05:32:46;;;;;;;7.13;3.15;;;;;;;;;;5134332;27;20043;-72
2021/07/31 05:35:12;;;;;;;8.27;3.33;;;;;;;;;;5133958;27;20522;-73
2021/07/31 05:37:37;;;;;;;5.35;2.75;;;;;;;;;;5134201;27;20019;-72
2021/07/31 05:40:03;;;;;;;6.68;3.00;;;;;;;;;;5133971;27;20034;-73
2021/07/31 05:42:29;;;;;;;7.50;3.45;;;;;;;;;;5134077;27;20057;-73
2021/07/31 05:45:02;;;;;;;7.45;3.58;;;;;;;;;;5133807;27;20442;-73
2021/07/31 05:47:28;;;;;;;5.85;3.00;;;;;;;;;;5133640;27;20039;-71
2021/07/31 05:49:59;;;;;;;5.72;3.00;;;;;;;;;;5133801;27;20038;-73
2021/07/31 05:52:26;;;;;;;6.47;3.35;;;;;;;;;;5133917;27;20141;-73
2021/07/31 05:54:55;;;;;;;6.68;3.15;;;;;;;;;;5133762;27;20026;-74
2021/07/31 05:57:21;;;;;;;6.90;3.20;;;;;;;;;;5133873;27;20092;-73
2021/07/31 05:59:47;;;;;;;6.28;3.22;;;;;;;;;;5134082;27;20054;-72
2021/07/31 06:02:12;;;;;;;9.05;3.33;;;;;;;;;;5133558;27;20636;-74
2021/07/31 06:04:38;;;;;;;8.23;3.78;;;;;;;;;;5133819;27;20518;-73
2021/07/31 06:07:06;;;;;;;8.75;2.88;;;;;;;;;;5133067;27;20023;-72
2021/07/31 06:09:33;;;;;;;6.47;3.03;;;;;;;;;;5133635;27;20083;-73
2021/07/31 06:11:59;;;;;;;7.57;3.38;;;;;;;;;;5133032;27;20035;-74
2021/07/31 06:14:24;;;;;;;5.72;3.15;;;;;;;;;;5133420;27;20035;-73
2021/07/31 06:16:50;;;;;;;6.97;3.40;;;;;;;;;;5133478;27;20019;-73
2021/07/31 06:19:15;;;;;;;8.57;3.40;;;;;;;;;;5133432;27;20072;-73
2021/07/31 06:21:41;;;;;;;6.07;3.20;;;;;;;;;;5133426;27;20023;-73
2021/07/31 06:24:06;;;;;;;6.10;3.22;;;;;;;;;;5132974;27;20023;-72
2021/07/31 06:26:31;;;;;;;7.40;3.45;;;;;;;;;;5133240;27;20370;-73
2021/07/31 06:28:57;;;;;;;5.97;3.20;;;;;;;;;;5132870;27;20378;-72
2021/07/31 06:31:22;;;;;;;7.07;2.85;;;;;;;;;;5133395;27;20114;-73
2021/07/31 06:33:48;;;;;;;6.85;3.38;;;;;;;;;;5133072;27;20439;-74
2021/07/31 06:36:18;;;;;;;8.48;3.53;;;;;;;;;;5132789;27;20538;-73
2021/07/31 06:38:44;;;;;;;5.85;3.38;;;;;;;;;;5132986;27;20015;-73
2021/07/31 06:41:09;;;;;;;5.88;3.20;;;;;;;;;;5133004;27;20152;-74
2021/07/31 06:43:35;;;;;;;4.70;3.13;;;;;;;;;;5132828;27;20058;-73
2021/07/31 06:46:12;;;;;;;9.13;3.70;;;;;;;;;;5132432;27;20063;-73
2021/07/31 06:48:37;;;;;;;7.03;3.13;;;;;;;;;;5132769;27;20050;-73
2021/07/31 06:51:03;;;;;;;7.60;4.07;;;;;;;;;;5132588;27;20054;-73
2021/07/31 06:53:28;;;;;;;7.53;2.80;;;;;;;;;;5130348;27;20035;-74
2021/07/31 06:55:57;;;;;;;7.65;3.08;;;;;;;;;;5121678;27;20023;-74
2021/07/31 06:58:24;;;;;;;7.97;3.03;;;;;;;;;;5128008;27;20394;-73
2021/07/31 07:00:50;;;;;;;6.25;3.17;;;;;;;;;;5132620;27;20055;-74
2021/07/31 07:03:15;;;;;;;8.57;3.58;;;;;;;;;;5132549;27;20073;-74
2021/07/31 07:05:41;;;;;;;5.90;3.30;;;;;;;;;;5132536;27;20133;-73
2021/07/31 07:08:06;;;;;;;7.88;3.60;;;;;;;;;;5132275;27;20027;-74
2021/07/31 07:10:32;;;;;;;8.10;3.50;;;;;;;;;;5132498;27;20019;-72
2021/07/31 07:12:58;;;;;;;5.28;2.90;;;;;;;;;;5122897;27;20449;-73
2021/07/31 07:15:25;;;;;;;5.53;3.10;;;;;;;;;;5123323;27;20106;-73
2021/07/31 07:17:50;;;;;;;5.13;2.90;;;;;;;;;;5123681;27;20055;-73
2021/07/31 07:20:15;;;;;;;5.50;2.83;;;;;;;;;;5131527;27;20051;-73
2021/07/31 07:22:41;;;;;;;6.15;3.05;;;;;;;;;;5130613;27;20034;-72
2021/07/31 07:25:07;;;;;;;5.35;3.03;;;;;;;;;;5116472;27;20495;-72
2021/07/31 07:27:32;;;;;;;5.47;2.75;;;;;;;;;;5116651;27;20037;-72
2021/07/31 07:29:58;;;;;;;6.40;3.05;;;;;;;;;;5120936;27;20035;-72
2021/07/31 07:32:23;;;;;;;5.35;2.85;;;;;;;;;;5130423;27;20098;-73
2021/07/31 07:34:48;;;;;;;4.25;2.95;;;;;;;;;;5132042;27;20480;-73
2021/07/31 07:37:14;;;;;;;5.45;2.78;;;;;;;;;;5125025;27;20026;-73
2021/07/31 07:39:39;;;;;;;5.35;3.10;;;;;;;;;;5115944;27;20026;-73
2021/07/31 07:42:05;;;;;;;5.63;3.25;;;;;;;;;;5118258;27;20088;-73
2021/07/31 07:44:31;;;;;;;6.10;2.80;;;;;;;;;;5132016;27;20022;-73
2021/07/31 07:46:57;;;;;;;5.03;2.40;;;;;;;;;;5118183;27;20096;-73
2021/07/31 07:49:24;;;;;;;5.03;2.67;;;;;;;;;;5119199;27;20490;-72
2021/07/31 07:51:50;;;;;;;6.47;2.97;;;;;;;;;;5117667;27;20061;-73
2021/07/31 07:54:15;;;;;;;3.83;2.33;;;;;;;;;;5114018;28;20072;-74
2021/07/31 07:56:41;;;;;;;5.38;2.67;;;;;;;;;;5118468;28;20027;-75
2021/07/31 07:59:06;;;;;;;4.57;2.80;;;;;;;;;;5119829;28;20504;-75
2021/07/31 08:01:32;;;;;;;3.95;2.53;;;;;;;;;;5123862;28;20031;-76
2021/07/31 08:03:58;;;;;;;5.57;2.70;;;;;;;;;;5124799;28;20024;-75
2021/07/31 08:06:23;;;;;;;6.13;2.80;;;;;;;;;;5117867;28;20019;-74
2021/07/31 08:08:49;;;;;;;6.35;2.90;;;;;;;;;;5123602;28;20027;-75
2021/07/31 08:11:14;;;;;;;5.35;2.78;;;;;;;;;;5116656;28;20027;-76
2021/07/31 08:13:40;;;;;;;5.07;2.85;;;;;;;;;;5127402;28;20119;-75
2021/07/31 08:16:05;;;;;;;4.93;3.00;;;;;;;;;;5117785;28;20050;-75
2021/07/31 08:18:31;;;;;;;7.22;2.85;;;;;;;;;;5131550;28;20051;-76
2021/07/31 08:20:56;;;;;;;6.22;2.95;;;;;;;;;;5128104;28;20029;-76
2021/07/31 08:23:22;;;;;;;4.82;2.85;;;;;;;;;;5125885;28;20053;-76
2021/07/31 08:25:47;;;;;;;6.38;3.20;;;;;;;;;;5125496;28;20035;-76
2021/07/31 08:28:13;;;;;;;7.57;3.00;;;;;;;;;;5125487;28;20016;-77
2021/07/31 08:30:38;;;;;;;6.15;2.70;;;;;;;;;;5126966;27;20097;-76
2021/07/31 08:33:04;;;;;;;5.80;3.15;;;;;;;;;;5133619;27;20068;-76
2021/07/31 08:35:29;;;;;;;6.00;2.83;;;;;;;;;;5136104;27;20034;-77
2021/07/31 08:37:55;;;;;;;7.18;3.10;;;;;;;;;;5117336;27;20095;-75
2021/07/31 08:40:21;;;;;;;5.80;2.90;;;;;;;;;;5135909;27;20023;-76
2021/07/31 08:42:46;;;;;;;5.57;2.85;;;;;;;;;;5135636;27;20114;-76
2021/07/31 08:45:13;;;;;;;4.20;2.60;;;;;;;;;;5135770;27;20031;-77
2021/07/31 08:47:39;;;;;;;5.88;2.80;;;;;;;;;;5135292;27;20042;-76
2021/07/31 08:50:07;;;;;;;5.30;2.67;;;;;;;;;;5135433;27;20027;-76
2021/07/31 08:52:35;;;;;;;5.07;3.10;;;;;;;;;;5135642;27;20531;-76
2021/07/31 08:55:00;;;;;;;5.50;2.88;;;;;;;;;;5135439;27;20060;-76
2021/07/31 08:57:26;;;;;;;5.97;2.92;;;;;;;;;;5135615;27;20487;-76
2021/07/31 08:59:53;;;;;;;6.13;2.70;;;;;;;;;;5135298;27;20439;-76
2021/07/31 09:02:19;;;;;;;6.07;2.92;;;;;;;;;;5135405;27;20030;-77
2021/07/31 09:04:44;;;;;;;5.97;3.33;;;;;;;;;;5135680;27;20039;-76
2021/07/31 09:07:14;;;;;;;5.80;2.70;;;;;;;;;;5135058;27;20031;-77
2021/07/31 09:09:40;;;;;;;7.57;2.92;;;;;;;;;;5135571;27;20031;-77
2021/07/31 09:12:10;;;;;;;3.75;2.85;;;;;;;;;;5134955;27;20377;-76
2021/07/31 09:14:43;;;;;;;4.57;2.78;;;;;;;;;;5133560;27;20030;-75
2021/07/31 09:17:22;;;;;;;6.53;2.90;;;;;;;;;;5127674;27;20023;-75
2021/07/31 09:19:48;;;;;;;5.53;3.00;;;;;;;;;;5128505;27;20043;-76
2021/07/31 09:22:13;;;;;;;6.45;2.80;;;;;;;;;;5128618;27;20355;-76
2021/07/31 09:24:39;;;;;;;3.83;2.60;;;;;;;;;;5128151;27;20064;-74
2021/07/31 09:27:23;;;;;;;6.30;3.00;;;;;;;;;;5127685;27;20804;-75
2021/07/31 09:30:00;;;;;;;5.30;2.72;;;;;;;;;;5132697;27;20493;-75
2021/07/31 09:32:39;;;;;;;7.25;2.80;;;;;;;;;;5134954;27;20414;-75
2021/07/31 09:35:19;;;;;;;4.85;2.53;;;;;;;;;;5132608;27;20031;-77
2021/07/31 09:37:48;;;;;;;6.03;2.70;;;;;;;;;;5134359;27;20015;-76
2021/07/31 09:40:14;;;;;;;5.20;2.60;;;;;;;;;;5129125;27;20439;-76
2021/07/31 09:42:41;;;;;;;5.30;2.90;;;;;;;;;;5121953;27;20109;-75
2021/07/31 09:45:12;;;;;;;5.55;2.70;;;;;;;;;;5131729;27;20486;-74
2021/07/31 09:47:56;;;;;;;8.25;3.08;;;;;;;;;;5128273;27;20042;-74
2021/07/31 09:50:36;;;;;;;5.22;2.75;;;;;;;;;;5127565;27;20031;-75
2021/07/31 09:53:18;;;;;;;5.78;2.35;;;;;;;;;;5128567;27;20027;-74
2021/07/31 09:55:49;;;;;;;5.13;2.30;;;;;;;;;;5126342;27;20031;-75
2021/07/31 09:58:16;;;;;;;7.68;2.60;;;;;;;;;;5127943;27;20044;-74
2021/07/31 10:00:46;;;;;;;7.20;2.40;;;;;;;;;;5127651;27;20076;-75
2021/07/31 10:03:13;;;;;;;6.55;2.78;;;;;;;;;;5127085;27;20046;-75
2021/07/31 10:05:40;;;;;;;5.90;2.70;;;;;;;;;;5128795;27;20027;-74
2021/07/31 10:08:10;;;;;;;4.55;2.40;;;;;;;;;;5127243;27;20501;-76
2021/07/31 10:10:36;;;;;;;9.18;2.67;;;;;;;;;;5128232;27;20022;-75
2021/07/31 10:13:03;;;;;;;5.20;2.50;;;;;;;;;;5127730;27;20034;-76
2021/07/31 10:15:29;;;;;;;4.30;2.30;;;;;;;;;;5127455;27;20050;-75
2021/07/31 10:17:54;;;;;;;5.43;2.17;;;;;;;;;;5127126;27;20041;-75
2021/07/31 10:20:28;;;;;;;6.20;2.53;;;;;;;;;;5127759;27;20031;-75
2021/07/31 10:22:56;;;;;;;4.68;2.10;;;;;;;;;;5127912;27;20271;-76
2021/07/31 10:25:25;;;;;;;5.97;2.17;;;;;;;;;;5130017;27;20030;-75
2021/07/31 10:27:53;;;;;;;3.95;1.80;;;;;;;;;;5132934;27;20105;-75
2021/07/31 10:30:27;;;;;;;7.10;2.20;;;;;;;;;;5132232;27;20038;-74
2021/07/31 10:32:53;;;;;;;2.45;1.63;;;;;;;;;;5132807;27;20042;-76
2021/07/31 10:35:27;;;;;;;5.80;2.00;;;;;;;;;;5132672;27;20060;-76
2021/07/31 10:37:55;;;;;;;3.55;1.95;;;;;;;;;;5132705;27;20033;-75
2021/07/31 10:40:26;;;;;;;4.82;1.88;;;;;;;;;;5132359;27;20094;-75
2021/07/31 10:42:52;;;;;;;3.85;2.03;;;;;;;;;;5121149;27;20030;-75
2021/07/31 10:45:22;;;;;;;4.88;2.38;;;;;;;;;;5132323;27;20023;-74
2021/07/31 10:47:57;;;;;;;5.90;2.28;;;;;;;;;;5132176;27;20440;-74
2021/07/31 10:50:22;;;;;;;3.55;1.95;;;;;;;;;;5132283;27;20105;-74
2021/07/31 10:52:55;;;;;;;5.68;1.98;;;;;;;;;;5132223;27;20137;-74
2021/07/31 10:55:26;;;;;;;2.50;1.70;;;;;;;;;;5131221;27;20462;-75
2021/07/31 10:57:54;;;;;;;3.83;1.90;;;;;;;;;;5132346;27;20106;-75
2021/07/31 11:00:27;;;;;;;4.80;2.00;;;;;;;;;;5132255;27;20027;-74
2021/07/31 11:02:53;;;;;;;4.68;2.00;;;;;;;;;;5132250;27;20517;-75
2021/07/31 11:05:20;;;;;;;6.25;2.33;;;;;;;;;;5132191;27;20034;-75
2021/07/31 11:07:58;;;;;;;3.08;1.88;;;;;;;;;;5132254;27;20031;-75
2021/07/31 11:10:43;;;;;;;3.58;1.85;;;;;;;;;;5131667;27;20046;-76
2021/07/31 11:13:09;;;;;;;5.25;1.60;;;;;;;;;;5131723;27;20454;-75
2021/07/31 11:15:35;;;;;;;3.22;1.60;;;;;;;;;;5131869;27;20045;-76
2021/07/31 11:18:02;;;;;;;5.82;1.85;;;;;;;;;;5131960;27;20462;-75
2021/07/31 11:20:33;;;;;;;5.10;1.88;;;;;;;;;;5131675;27;20096;-75
2021/07/31 11:23:08;;;;;;;5.28;2.00;;;;;;;;;;5131670;27;20382;-75
2021/07/31 11:25:34;;;;;;;4.10;2.00;;;;;;;;;;5124484;27;20296;-75
2021/07/31 11:28:08;;;;;;;5.90;2.10;;;;;;;;;;5131768;27;20065;-75
2021/07/31 11:30:45;;;;;;;4.47;2.03;;;;;;;;;;5131657;27;20030;-75
2021/07/31 11:33:27;;;;;;;5.60;2.33;;;;;;;;;;5131564;27;20484;-75
2021/07/31 11:35:58;;;;;;;4.32;2.20;;;;;;;;;;5125309;27;20027;-74
2021/07/31 11:38:26;;;;;;;5.18;2.17;;;;;;;;;;5131344;27;20374;-73
2021/07/31 11:41:02;;;;;;;6.15;2.10;;;;;;;;;;5131716;27;20018;-74
2021/07/31 11:43:28;;;;;;;5.05;2.15;;;;;;;;;;5131231;27;20031;-75
2021/07/31 11:45:54;;;;;;;5.32;2.00;;;;;;;;;;5131379;27;20019;-75
2021/07/31 11:48:20;;;;;;;3.65;2.05;;;;;;;;;;5131346;27;20055;-74
2021/07/31 11:51:03;;;;;;;5.78;2.00;;;;;;;;;;5131484;27;20110;-74
2021/07/31 11:53:29;;;;;;;4.32;1.90;;;;;;;;;;5131440;28;20023;-74
2021/07/31 11:56:11;;;;;;;4.47;1.77;;;;;;;;;;5131197;28;20042;-74
2021/07/31 11:58:37;;;;;;;4.15;2.00;;;;;;;;;;5130323;28;20023;-75
2021/07/31 12:01:03;;;;;;;4.80;2.05;;;;;;;;;;5131885;28;20023;-74
2021/07/31 12:03:56;;;;;;;5.57;2.13;;;;;;;;;;5132336;28;20027;-75
2021/07/31 12:06:44;;;;;;;4.35;1.98;;;;;;;;;;5134814;27;20661;-74
2021/07/31 12:09:26;;;;;;;7.32;2.00;;;;;;;;;;5128076;27;20110;-76
2021/07/31 12:11:55;;;;;;;7.07;2.03;;;;;;;;;;5135697;27;20092;-76
2021/07/31 12:14:26;;;;;;;4.28;2.28;;;;;;;;;;5131215;27;20061;-75
2021/07/31 12:16:52;;;;;;;4.35;2.42;;;;;;;;;;5135314;27;20363;-74
2021/07/31 12:19:17;;;;;;;4.90;2.17;;;;;;;;;;5135657;27;20019;-74
2021/07/31 12:21:43;;;;;;;4.18;2.00;;;;;;;;;;5136103;27;20523;-76
2021/07/31 12:24:18;;;;;;;3.92;2.10;;;;;;;;;;5135673;27;20026;-75
2021/07/31 12:26:52;;;;;;;8.55;2.60;;;;;;;;;;5135612;27;20105;-75
2021/07/31 12:29:38;;;;;;;5.00;2.20;;;;;;;;;;5135721;27;20378;-75
2021/07/31 12:32:26;;;;;;;4.97;2.30;;;;;;;;;;5132943;27;20096;-74
2021/07/31 12:34:53;;;;;;;6.13;2.60;;;;;;;;;;5133779;27;20038;-75
2021/07/31 12:37:20;;;;;;;4.95;2.65;;;;;;;;;;5135245;27;20027;-74
2021/07/31 12:39:45;;;;;;;6.30;2.75;;;;;;;;;;5135916;27;20382;-75
2021/07/31 12:42:11;;;;;;;9.27;3.00;;;;;;;;;;5135447;27;20023;-74
2021/07/31 12:44:39;;;;;;;5.80;2.40;;;;;;;;;;5135540;27;20023;-75
2021/07/31 12:47:05;;;;;;;8.55;2.45;;;;;;;;;;5134889;27;20067;-74
2021/07/31 12:49:32;;;;;;;5.40;2.28;;;;;;;;;;5134872;27;20023;-75
2021/07/31 12:51:58;;;;;;;5.50;2.40;;;;;;;;;;5135117;27;20497;-75
2021/07/31 12:54:25;;;;;;;5.63;2.35;;;;;;;;;;5134919;27;20019;-75
2021/07/31 12:56:51;;;;;;;7.15;2.30;;;;;;;;;;5135113;27;20088;-75
2021/07/31 12:59:16;;;;;;;4.90;2.15;;;;;;;;;;5134717;27;20027;-76
2021/07/31 13:01:42;;;;;;;4.25;2.20;;;;;;;;;;5135148;27;20094;-76
2021/07/31 13:04:07;;;;;;;4.40;2.22;;;;;;;;;;5134815;27;20027;-76
2021/07/31 13:06:33;;;;;;;5.40;2.50;;;;;;;;;;5134624;27;20075;-75
2021/07/31 13:08:59;;;;;;;7.57;2.65;;;;;;;;;;5116351;27;20076;-76
2021/07/31 13:11:24;;;;;;;6.82;2.50;;;;;;;;;;5134740;27;20038;-75
2021/07/31 13:13:49;;;;;;;6.35;2.88;;;;;;;;;;5134532;27;20019;-76
2021/07/31 13:16:15;;;;;;;7.63;2.85;;;;;;;;;;5134446;27;20038;-75
2021/07/31 13:18:40;;;;;;;9.65;3.53;;;;;;;;;;5133367;27;20027;-76
2021/07/31 13:21:06;;;;;;;5.88;2.42;;;;;;;;;;5134515;27;20049;-75
2021/07/31 13:23:36;;;;;;;6.75;2.63;;;;;;;;;;5134286;27;20134;-75
2021/07/31 13:26:02;;;;;;;4.03;2.58;;;;;;;;;;5134532;27;20034;-75
2021/07/31 13:28:27;;;;;;;6.78;2.35;;;;;;;;;;5134135;27;20023;-75
2021/07/31 13:30:54;;;;;;;7.72;2.72;;;;;;;;;;5134658;27;20066;-75
2021/07/31 13:33:20;;;;;;;6.65;2.55;;;;;;;;;;5133971;27;20068;-75
2021/07/31 13:35:46;;;;;;;4.20;2.30;;;;;;;;;;5134222;27;20033;-76
2021/07/31 13:38:21;;;;;;;5.43;2.60;;;;;;;;;;5134138;27;20122;-75
2021/07/31 13:40:47;;;;;;;5.15;2.83;;;;;;;;;;5134188;27;20408;-75
2021/07/31 13:43:15;;;;;;;4.60;2.30;;;;;;;;;;5134112;27;20027;-76
2021/07/31 13:45:41;;;;;;;5.78;3.00;;;;;;;;;;5133892;27;20050;-76
2021/07/31 13:48:06;;;;;;;3.90;2.38;;;;;;;;;;5133908;27;20058;-76
2021/07/31 13:50:32;;;;;;;5.53;2.70;;;;;;;;;;5134115;27;20109;-76
2021/07/31 13:52:57;;;;;;;4.82;2.40;;;;;;;;;;5133834;27;20513;-76
2021/07/31 13:55:22;;;;;;;5.53;2.28;;;;;;;;;;5134033;27;20027;-75
2021/07/31 13:57:49;;;;;;;6.68;2.47;;;;;;;;;;5133737;27;20024;-74
2021/07/31 14:00:14;;;;;;;5.38;2.63;;;;;;;;;;5133483;27;20077;-76
2021/07/31 14:02:44;;;;;;;4.63;2.10;;;;;;;;;;5133584;27;20402;-76
2021/07/31 14:05:17;;;;;;;3.45;1.88;;;;;;;;;;5132449;27;20023;-76
2021/07/31 14:07:44;;;;;;;3.35;1.63;;;;;;;;;;5115550;27;20030;-75
2021/07/31 14:10:10;;;;;;;3.65;1.98;;;;;;;;;;5129953;27;20083;-75
2021/07/31 14:12:36;;;;;;;3.67;2.00;;;;;;;;;;5114680;27;20027;-76
2021/07/31 14:15:01;;;;;;;3.20;1.80;;;;;;;;;;5133992;27;20022;-76
2021/07/31 14:17:27;;;;;;;3.72;1.80;;;;;;;;;;5134038;27;20026;-76
2021/07/31 14:19:52;;;;;;;3.17;1.70;;;;;;;;;;5134355;27;20023;-76
2021/07/31 14:22:18;;;;;;;3.50;1.63;;;;;;;;;;5133477;27;20023;-77
2021/07/31 14:24:43;;;;;;;4.80;1.70;;;;;;;;;;5130804;27;20023;-76
2021/07/31 14:27:09;;;;;;;3.70;1.80;;;;;;;;;;5133289;27;20051;-75
2021/07/31 14:29:39;;;;;;;5.00;1.52;;;;;;;;;;5132162;27;20038;-75
2021/07/31 14:32:04;;;;;;;3.50;1.60;;;;;;;;;;5134241;27;20493;-76
2021/07/31 14:34:30;;;;;;;3.58;1.58;;;;;;;;;;5133523;27;20023;-75
2021/07/31 14:36:58;;;;;;;1.83;1.30;;;;;;;;;;5132804;27;20494;-77
2021/07/31 14:39:24;;;;;;;1.73;1.17;;;;;;;;;;5132908;27;20106;-76
2021/07/31 14:41:49;;;;;;;1.67;1.00;;;;;;;;;;5133089;27;20148;-75